Time;durP1;ratioP1;P1;durP2;ratioP2;P2;SDS_P1;SDS_P2;PMS_P1;PMS_P2;Temp;Humidity;BMP_temperature;BMP_pressure;BME280_temperature;BME280_humidity;BME280_pressure;Samples;Min_cycle;Max_cycle;Signal;HPM_P1;HPM_P2
2021/05/12 00:04:30;;;;;;;7.80;4.63;;;13.40;99.90;;;;;;10413953;28;20103;-58
2021/05/12 00:09:31;;;;;;;4.20;2.70;;;13.40;99.90;;;;;;10413215;28;20052;-59
2021/05/12 00:14:36;;;;;;;4.78;2.63;;;13.50;99.90;;;;;;10411194;28;20045;-59
2021/05/12 00:19:40;;;;;;;6.03;2.92;;;13.40;99.90;;;;;;10411316;28;20041;-59
2021/05/12 00:24:42;;;;;;;4.70;3.03;;;13.30;99.90;;;;;;10419801;28;20060;-59
2021/05/12 00:29:43;;;;;;;4.32;3.10;;;13.30;99.90;;;;;;10415333;28;20057;-58
2021/05/12 00:34:45;;;;;;;4.32;3.25;;;13.20;99.90;;;;;;10420648;28;20124;-59
2021/05/12 00:39:47;;;;;;;3.58;2.33;;;13.20;99.90;;;;;;10415421;28;20099;-59
2021/05/12 00:44:48;;;;;;;5.13;2.28;;;13.10;99.90;;;;;;10419600;28;20855;-59
2021/05/12 00:49:50;;;;;;;4.38;3.22;;;13.10;99.90;;;;;;10417322;28;20057;-59
2021/05/12 00:54:55;;;;;;;4.38;2.78;;;13.10;99.90;;;;;;10417221;28;20106;-59
2021/05/12 00:59:57;;;;;;;5.57;3.13;;;13.00;99.90;;;;;;10416919;28;20053;-60
2021/05/12 01:05:00;;;;;;;5.22;3.20;;;13.00;99.90;;;;;;10418073;28;20040;-59
2021/05/12 01:10:01;;;;;;;8.20;3.38;;;13.10;99.90;;;;;;10416986;28;20095;-59
2021/05/12 01:15:04;;;;;;;5.70;3.50;;;13.10;99.90;;;;;;10417678;28;20044;-59
2021/05/12 01:20:06;;;;;;;6.38;3.50;;;13.10;99.90;;;;;;10416431;28;20103;-59
2021/05/12 01:25:10;;;;;;;8.15;4.75;;;13.10;99.90;;;;;;10415291;28;20106;-59
2021/05/12 01:30:12;;;;;;;5.82;4.25;;;13.00;99.90;;;;;;10417844;28;20146;-59
2021/05/12 01:35:14;;;;;;;12.10;4.68;;;12.90;99.90;;;;;;10415919;28;20048;-59
2021/05/12 01:40:16;;;;;;;11.15;5.15;;;12.80;99.90;;;;;;10413917;28;20057;-59
2021/05/12 01:45:18;;;;;;;7.13;4.80;;;12.70;99.90;;;;;;10415926;28;20049;-60
2021/05/12 01:50:20;;;;;;;7.85;4.90;;;12.70;99.90;;;;;;10416304;28;20053;-59
2021/05/12 01:55:21;;;;;;;7.93;4.47;;;12.80;99.90;;;;;;10416618;28;20450;-59
2021/05/12 02:00:32;;;;;;;6.70;3.50;;;12.70;99.90;;;;;;10408568;28;20103;-59
2021/05/12 02:05:36;;;;;;;6.65;3.47;;;12.60;99.90;;;;;;10392173;28;20131;-59
2021/05/12 02:10:41;;;;;;;7.95;3.40;;;12.60;99.90;;;;;;10413483;28;20107;-60
2021/05/12 02:15:44;;;;;;;6.28;2.55;;;12.60;99.90;;;;;;10414405;28;20049;-59
2021/05/12 02:20:46;;;;;;;5.10;2.20;;;12.60;99.90;;;;;;10411812;28;20037;-59
2021/05/12 02:25:48;;;;;;;5.53;2.17;;;12.70;99.90;;;;;;10413814;28;20063;-59
2021/05/12 02:30:50;;;;;;;4.35;2.15;;;12.70;99.90;;;;;;10412906;28;20053;-59
2021/05/12 02:35:51;;;;;;;2.72;1.98;;;12.70;99.90;;;;;;10409587;28;20107;-59
2021/05/12 02:40:53;;;;;;;6.18;1.95;;;12.70;99.90;;;;;;10415161;28;20064;-60
2021/05/12 02:45:55;;;;;;;5.68;1.85;;;12.70;99.90;;;;;;10410964;28;20049;-59
2021/05/12 02:50:57;;;;;;;8.18;1.55;;;12.60;99.90;;;;;;10410300;28;20480;-58
2021/05/12 02:55:58;;;;;;;3.35;1.58;;;12.60;99.90;;;;;;10411003;28;20147;-58
2021/05/12 03:01:00;;;;;;;4.13;1.38;;;12.60;99.90;;;;;;10407384;28;20119;-59
2021/05/12 03:06:02;;;;;;;2.83;1.27;;;12.60;99.90;;;;;;10405347;28;20126;-59
2021/05/12 03:11:04;;;;;;;15.00;3.80;;;12.60;99.90;;;;;;10411000;28;20106;-59
2021/05/12 03:16:06;;;;;;;6.32;2.25;;;12.50;99.90;;;;;;10414161;28;20639;-59
2021/05/12 03:21:08;;;;;;;8.45;1.60;;;12.60;99.90;;;;;;10407138;28;20128;-59
2021/05/12 03:26:11;;;;;;;5.90;1.35;;;12.50;99.90;;;;;;10413314;28;20136;-59
2021/05/12 03:31:13;;;;;;;5.93;1.60;;;12.50;99.90;;;;;;10410846;28;20604;-59
2021/05/12 03:36:15;;;;;;;3.95;1.40;;;12.50;99.90;;;;;;10413843;28;20360;-59
2021/05/12 03:41:16;;;;;;;3.00;1.20;;;12.50;99.90;;;;;;10410351;28;20056;-61
2021/05/12 03:46:19;;;;;;;4.85;1.40;;;12.50;99.90;;;;;;10408955;28;20053;-61
2021/05/12 03:51:20;;;;;;;4.80;1.45;;;12.50;99.90;;;;;;10412015;28;20123;-61
2021/05/12 03:56:22;;;;;;;5.30;1.70;;;12.40;99.90;;;;;;10407624;28;20111;-61
2021/05/12 04:01:24;;;;;;;3.13;1.80;;;12.50;99.90;;;;;;10408647;28;20506;-61
2021/05/12 04:06:26;;;;;;;3.05;1.67;;;12.50;99.90;;;;;;10408490;28;20072;-61
2021/05/12 04:11:27;;;;;;;7.22;1.38;;;12.50;99.90;;;;;;10379651;28;20049;-61
2021/05/12 04:16:31;;;;;;;4.68;2.60;;;12.50;99.90;;;;;;10407257;28;20042;-61
2021/05/12 04:21:33;;;;;;;8.77;3.20;;;12.50;99.90;;;;;;10406636;28;20049;-61
2021/05/12 04:26:34;;;;;;;4.25;2.25;;;12.60;99.90;;;;;;10409154;28;20088;-60
2021/05/12 04:31:36;;;;;;;3.50;2.03;;;12.50;99.90;;;;;;10413969;28;20052;-60
2021/05/12 04:36:39;;;;;;;11.43;6.78;;;12.50;99.90;;;;;;10410041;28;20061;-59
2021/05/12 04:41:40;;;;;;;8.95;5.03;;;12.60;99.90;;;;;;10410573;28;20099;-60
2021/05/12 04:46:45;;;;;;;5.50;3.08;;;12.60;99.90;;;;;;10407194;28;20399;-60
2021/05/12 04:51:48;;;;;;;9.07;4.68;;;12.60;99.90;;;;;;10407977;28;20515;-60
2021/05/12 04:56:49;;;;;;;10.18;5.10;;;12.60;99.90;;;;;;10406593;28;20044;-60
2021/05/12 05:01:52;;;;;;;9.23;5.07;;;12.70;99.90;;;;;;10410263;28;20064;-60
2021/05/12 05:06:54;;;;;;;8.55;5.53;;;12.70;99.90;;;;;;10411217;28;20544;-58
2021/05/12 05:11:56;;;;;;;16.23;9.00;;;12.70;99.90;;;;;;10415729;28;20057;-58
2021/05/12 05:17:00;;;;;;;13.10;9.55;;;12.80;99.90;;;;;;10408678;28;20045;-60
2021/05/12 05:22:03;;;;;;;17.33;11.48;;;12.80;99.90;;;;;;10412414;28;20050;-60
2021/05/12 05:27:05;;;;;;;20.95;11.73;;;12.90;99.90;;;;;;10415888;28;20061;-61
2021/05/12 05:32:07;;;;;;;19.63;11.38;;;12.90;99.90;;;;;;10413901;28;20119;-58
2021/05/12 05:37:08;;;;;;;15.65;11.43;;;12.90;99.90;;;;;;10416912;28;20065;-58
2021/05/12 05:42:11;;;;;;;19.10;11.25;;;12.90;99.90;;;;;;10396970;28;20149;-60
2021/05/12 05:47:12;;;;;;;18.77;12.18;;;13.00;99.90;;;;;;10414690;28;20080;-61
2021/05/12 05:52:14;;;;;;;15.90;8.50;;;13.10;99.90;;;;;;10413995;28;20052;-61
2021/05/12 05:57:16;;;;;;;13.10;7.35;;;13.20;99.90;;;;;;10412464;28;20056;-60
2021/05/12 06:02:17;;;;;;;15.07;8.32;;;13.20;99.90;;;;;;10411901;28;20049;-61
2021/05/12 06:07:19;;;;;;;13.30;8.23;;;13.10;99.90;;;;;;10413063;28;20064;-62
2021/05/12 06:12:21;;;;;;;12.80;9.00;;;13.30;99.90;;;;;;10412509;28;20049;-61
2021/05/12 06:17:22;;;;;;;13.50;8.68;;;13.30;99.90;;;;;;10410895;28;20114;-61
2021/05/12 06:22:24;;;;;;;15.50;7.97;;;13.30;99.90;;;;;;10411405;28;20416;-62
2021/05/12 06:27:26;;;;;;;13.07;7.05;;;13.30;99.90;;;;;;10410697;28;20066;-61
2021/05/12 06:32:27;;;;;;;12.25;7.47;;;13.40;99.90;;;;;;10411602;28;20075;-61
2021/05/12 06:37:29;;;;;;;13.57;5.93;;;13.40;99.90;;;;;;10404372;28;20110;-61
2021/05/12 06:42:31;;;;;;;9.45;6.07;;;13.30;99.90;;;;;;10414673;28;20049;-61
2021/05/12 06:47:33;;;;;;;16.27;6.38;;;13.30;99.90;;;;;;10408129;28;20099;-61
2021/05/12 06:52:34;;;;;;;9.70;6.78;;;13.40;99.90;;;;;;10417776;28;20568;-61
2021/05/12 06:57:36;;;;;;;11.07;7.00;;;13.20;99.90;;;;;;10388979;28;20111;-62
2021/05/12 07:02:38;;;;;;;11.48;5.45;;;13.30;99.90;;;;;;10410821;28;20033;-61
2021/05/12 07:07:39;;;;;;;8.60;4.70;;;13.30;99.90;;;;;;10399439;28;20229;-61
2021/05/12 07:12:42;;;;;;;13.52;4.63;;;13.70;99.90;;;;;;10417656;28;20095;-61
2021/05/12 07:17:43;;;;;;;15.98;5.95;;;13.90;99.90;;;;;;10392865;28;20073;-61
2021/05/12 07:22:45;;;;;;;13.88;5.70;;;13.90;99.90;;;;;;10411504;28;20045;-61
2021/05/12 07:27:47;;;;;;;9.48;4.45;;;13.90;99.90;;;;;;10411500;28;20429;-61
2021/05/12 07:32:49;;;;;;;7.63;4.32;;;14.10;99.90;;;;;;10407247;28;20500;-61
2021/05/12 07:37:50;;;;;;;12.88;4.45;;;14.00;99.90;;;;;;10409706;28;20119;-61
2021/05/12 07:42:54;;;;;;;8.32;3.72;;;14.40;99.90;;;;;;10410339;28;20073;-61
2021/05/12 07:47:56;;;;;;;6.60;3.63;;;14.40;99.90;;;;;;10407894;28;20045;-61
2021/05/12 07:53:00;;;;;;;5.00;3.17;;;14.50;99.90;;;;;;10409618;28;20082;-61
2021/05/12 07:58:03;;;;;;;4.55;2.72;;;14.80;99.90;;;;;;10411861;28;21181;-61
2021/05/12 08:03:05;;;;;;;5.00;1.92;;;15.00;97.50;;;;;;10411524;28;20764;-61
2021/05/12 08:08:06;;;;;;;4.75;1.95;;;15.10;95.20;;;;;;10409744;28;20054;-62
2021/05/12 08:13:08;;;;;;;8.93;1.60;;;15.10;95.10;;;;;;10410741;28;20045;-61
2021/05/12 08:18:10;;;;;;;5.38;1.55;;;15.20;94.10;;;;;;10406176;28;20046;-61
2021/05/12 08:23:11;;;;;;;4.05;1.67;;;15.10;91.90;;;;;;10404259;28;20053;-60
2021/05/12 08:28:15;;;;;;;6.57;1.52;;;15.30;92.30;;;;;;10410017;28;20106;-61
2021/05/12 08:33:17;;;;;;;4.50;1.60;;;15.20;90.20;;;;;;10410646;28;20136;-61
2021/05/12 08:38:24;;;;;;;3.72;1.00;;;15.00;91.50;;;;;;10407340;28;20180;-61
2021/05/12 08:43:27;;;;;;;8.20;1.40;;;14.90;91.90;;;;;;10407750;28;20068;-61
2021/05/12 08:48:31;;;;;;;3.28;0.98;;;14.90;92.80;;;;;;10417884;28;20631;-61
2021/05/12 08:53:33;;;;;;;6.53;1.05;;;15.10;91.70;;;;;;10412033;28;20045;-61
2021/05/12 08:58:35;;;;;;;8.40;1.38;;;15.10;90.80;;;;;;10414491;28;20049;-60
2021/05/12 09:03:37;;;;;;;2.80;1.10;;;15.20;90.40;;;;;;10416288;28;20140;-60
2021/05/12 09:08:41;;;;;;;4.20;0.85;;;15.20;90.40;;;;;;10412050;28;20399;-61
2021/05/12 09:13:49;;;;;;;3.45;0.80;;;15.50;90.70;;;;;;10416399;28;20057;-61
2021/05/12 09:19:02;;;;;;;5.82;1.63;;;15.40;87.00;;;;;;10419856;28;20042;-61
2021/05/12 09:24:04;;;;;;;3.15;0.70;;;15.70;89.70;;;;;;10395093;28;20504;-61
2021/05/12 09:29:05;;;;;;;3.83;0.98;;;16.10;88.10;;;;;;10418119;28;20557;-61
2021/05/12 09:34:11;;;;;;;2.08;0.47;;;15.80;84.80;;;;;;10415074;28;20057;-61
2021/05/12 09:39:15;;;;;;;3.70;0.73;;;15.70;85.40;;;;;;10419654;28;20049;-61
2021/05/12 09:44:28;;;;;;;2.78;0.73;;;15.70;82.00;;;;;;10415617;28;20610;-61
2021/05/12 09:49:30;;;;;;;2.42;0.50;;;15.70;77.70;;;;;;10411741;28;20669;-61
2021/05/12 09:54:33;;;;;;;5.63;0.77;;;16.20;79.20;;;;;;10411386;28;20045;-61
2021/05/12 09:59:35;;;;;;;5.10;1.40;;;16.40;79.30;;;;;;10408888;28;20058;-62
2021/05/12 10:04:45;;;;;;;4.18;1.27;;;16.30;77.90;;;;;;10415917;28;20053;-61
2021/05/12 10:09:56;;;;;;;1.20;0.70;;;16.80;80.10;;;;;;10412345;28;20061;-61
2021/05/12 10:14:59;;;;;;;5.35;0.60;;;16.40;78.50;;;;;;10417607;28;20102;-62
2021/05/12 10:20:01;;;;;;;6.28;0.68;;;16.90;78.40;;;;;;10415441;28;20361;-62
2021/05/12 10:25:04;;;;;;;3.35;0.60;;;17.30;77.40;;;;;;10409271;28;20053;-62
2021/05/12 10:30:07;;;;;;;5.75;1.20;;;17.20;76.20;;;;;;10391059;28;20096;-62
2021/05/12 10:35:11;;;;;;;3.50;0.57;;;17.00;76.10;;;;;;10415055;28;20110;-62
2021/05/12 10:40:21;;;;;;;3.97;0.50;;;17.20;75.90;;;;;;10413697;28;20056;-62
2021/05/12 10:45:32;;;;;;;4.05;0.50;;;17.30;75.40;;;;;;10410917;28;20102;-62
2021/05/12 10:50:48;;;;;;;6.35;0.88;;;17.30;75.40;;;;;;10405583;28;20060;-61
2021/05/12 10:55:56;;;;;;;2.53;0.60;;;17.40;75.40;;;;;;10414893;28;20536;-62
2021/05/12 11:00:59;;;;;;;1.65;0.70;;;17.80;77.00;;;;;;10408274;28;20068;-62
2021/05/12 11:06:01;;;;;;;3.50;0.80;;;17.80;74.30;;;;;;10411878;28;20114;-61
2021/05/12 11:11:05;;;;;;;5.85;0.90;;;17.40;74.10;;;;;;10393621;28;20090;-62
2021/05/12 11:16:19;;;;;;;2.75;0.60;;;16.80;77.10;;;;;;10412985;28;20046;-62
2021/05/12 11:21:28;;;;;;;1.98;0.85;;;16.90;76.50;;;;;;10399548;28;20063;-62
2021/05/12 11:31:43;;;;;;;3.30;0.82;;;16.60;79.00;;;;;;10407876;28;20057;-62
2021/05/12 11:36:45;;;;;;;2.10;0.90;;;16.50;79.70;;;;;;10408939;28;20045;-62
2021/05/12 11:41:47;;;;;;;2.55;0.65;;;16.40;80.70;;;;;;10410877;28;20045;-63
2021/05/12 11:46:50;;;;;;;2.30;0.50;;;16.50;79.70;;;;;;10408784;28;20064;-63
2021/05/12 11:51:58;;;;;;;5.78;0.50;;;16.50;80.70;;;;;;10407833;28;20056;-62
2021/05/12 11:57:00;;;;;;;5.20;0.50;;;16.50;80.20;;;;;;10391144;28;20033;-62
2021/05/12 12:02:09;;;;;;;8.95;0.73;;;16.60;83.00;;;;;;10399307;28;20046;-60
2021/05/12 12:07:12;;;;;;;3.95;0.85;;;16.60;81.40;;;;;;10407835;28;20057;-60
2021/05/12 12:12:13;;;;;;;3.60;0.40;;;16.60;84.20;;;;;;10411081;28;20069;-60
2021/05/12 12:17:15;;;;;;;8.15;1.20;;;16.40;82.70;;;;;;10395830;28;20043;-60
2021/05/12 12:22:19;;;;;;;4.38;0.80;;;16.00;83.70;;;;;;10419127;28;20083;-60
2021/05/12 12:27:22;;;;;;;5.97;0.80;;;15.80;90.70;;;;;;10416275;28;20045;-60
2021/05/12 12:32:23;;;;;;;2.85;1.10;;;15.60;92.40;;;;;;10414130;28;20056;-60
2021/05/12 12:37:35;;;;;;;5.32;0.85;;;15.60;96.30;;;;;;10419406;28;20060;-60
2021/05/12 12:42:45;;;;;;;5.03;0.90;;;15.70;99.10;;;;;;10415814;28;20045;-60
2021/05/12 12:47:58;;;;;;;2.05;0.60;;;15.80;99.90;;;;;;10415970;28;20045;-60
2021/05/12 12:53:01;;;;;;;3.30;0.60;;;16.10;99.90;;;;;;10417884;28;20049;-60
2021/05/12 12:58:05;;;;;;;5.15;1.23;;;16.20;99.90;;;;;;10420562;28;20071;-60
2021/05/12 13:03:11;;;;;;;3.03;0.90;;;16.40;98.20;;;;;;10419086;28;20060;-62
2021/05/12 13:08:28;;;;;;;3.90;0.60;;;16.60;94.50;;;;;;10413728;28;20473;-62
2021/05/12 13:13:45;;;;;;;2.47;0.60;;;16.70;93.10;;;;;;10416712;28;20442;-62
2021/05/12 13:18:58;;;;;;;3.22;0.60;;;16.70;91.30;;;;;;10416564;28;20080;-61
2021/05/12 13:24:12;;;;;;;5.15;0.50;;;16.70;91.80;;;;;;10423264;28;20052;-61
2021/05/12 13:29:16;;;;;;;2.60;0.50;;;16.70;91.20;;;;;;10374573;28;20055;-61
2021/05/12 13:34:20;;;;;;;3.55;0.60;;;16.70;90.90;;;;;;10412651;28;20037;-61
2021/05/12 13:39:22;;;;;;;2.83;0.77;;;16.80;90.10;;;;;;10413076;28;20053;-61
2021/05/12 13:44:24;;;;;;;7.40;0.88;;;16.80;91.00;;;;;;10412645;28;20045;-61
2021/05/12 13:49:26;;;;;;;6.50;0.73;;;16.90;91.40;;;;;;10411656;28;20049;-61
2021/05/12 13:54:32;;;;;;;4.88;1.05;;;16.80;92.70;;;;;;10417281;28;20490;-61
2021/05/12 14:00:00;;;;;;;3.17;0.60;;;16.70;92.60;;;;;;10398255;28;20659;-61
2021/05/12 14:05:03;;;;;;;1.77;0.85;;;16.80;92.40;;;;;;10416905;28;20280;-61
2021/05/12 14:10:07;;;;;;;7.10;1.20;;;17.50;95.90;;;;;;10411193;28;20057;-61
2021/05/12 14:15:34;;;;;;;6.18;1.70;;;17.90;93.90;;;;;;10415319;28;20065;-61
2021/05/12 14:20:36;;;;;;;6.82;2.03;;;18.30;95.50;;;;;;10388587;28;20073;-61
2021/05/12 14:25:38;;;;;;;2.85;0.68;;;18.10;92.00;;;;;;10397662;28;20051;-61
2021/05/12 14:30:42;;;;;;;3.10;0.70;;;18.10;93.40;;;;;;10413565;28;20399;-61
2021/05/12 14:35:44;;;;;;;7.18;0.90;;;18.00;90.60;;;;;;10412518;28;20045;-61
2021/05/12 14:40:45;;;;;;;2.95;0.82;;;17.80;90.50;;;;;;10408830;28;20049;-66
2021/05/12 14:45:47;;;;;;;4.60;0.90;;;17.80;90.80;;;;;;10414754;28;20683;-61
2021/05/12 14:50:50;;;;;;;3.15;0.90;;;17.80;87.10;;;;;;10413759;28;20094;-61
2021/05/12 15:01:33;;;;;;;7.03;2.45;;;17.70;91.20;;;;;;10410447;28;20053;-61
2021/05/12 15:06:48;;;;;;;3.28;1.17;;;17.70;92.10;;;;;;10410013;28;20116;-61
2021/05/12 15:11:49;;;;;;;6.90;1.20;;;17.50;87.90;;;;;;10407385;28;20043;-61
2021/05/12 15:16:52;;;;;;;4.13;1.10;;;17.70;88.90;;;;;;10413161;28;20056;-61
2021/05/12 15:21:54;;;;;;;5.28;1.00;;;17.70;84.00;;;;;;10409651;28;20052;-61
2021/05/12 15:26:57;;;;;;;2.30;0.95;;;18.10;84.80;;;;;;10408294;28;20493;-61
2021/05/12 15:31:59;;;;;;;4.32;0.95;;;19.50;81.20;;;;;;10412592;28;20064;-61
2021/05/12 15:37:01;;;;;;;5.18;1.65;;;19.30;78.10;;;;;;10412814;28;20136;-61
2021/05/12 15:42:03;;;;;;;2.08;0.77;;;19.20;79.60;;;;;;10413466;28;21480;-61
2021/05/12 15:47:04;;;;;;;1.58;0.60;;;19.20;77.20;;;;;;10396241;28;20102;-60
2021/05/12 15:52:07;;;;;;;4.32;0.70;;;19.10;76.30;;;;;;10410151;28;20061;-61
2021/05/12 15:57:08;;;;;;;1.55;0.60;;;18.80;75.80;;;;;;10414946;28;20072;-61
2021/05/12 16:02:10;;;;;;;3.70;0.40;;;18.60;76.60;;;;;;10413398;28;20049;-61
2021/05/12 16:07:13;;;;;;;1.95;0.60;;;18.40;74.60;;;;;;10410528;28;20122;-61
2021/05/12 16:12:15;;;;;;;3.75;1.17;;;18.30;77.00;;;;;;10409434;28;20541;-61
2021/05/12 16:17:17;;;;;;;2.28;0.60;;;17.80;79.70;;;;;;10410029;28;20059;-61
2021/05/12 16:22:19;;;;;;;2.22;0.60;;;17.70;79.40;;;;;;10416636;28;20045;-61
2021/05/12 16:27:22;;;;;;;1.80;0.50;;;17.50;78.50;;;;;;10407375;28;20045;-60
2021/05/12 16:32:23;;;;;;;3.03;0.77;;;17.50;79.20;;;;;;10412350;28;20134;-60
2021/05/12 16:37:25;;;;;;;3.03;0.60;;;17.30;79.40;;;;;;10406786;28;20124;-61
2021/05/12 16:42:27;;;;;;;4.30;0.80;;;17.00;80.40;;;;;;10410333;28;20088;-61
2021/05/12 16:47:29;;;;;;;3.20;1.75;;;16.50;86.70;;;;;;10409547;28;20099;-61
2021/05/12 16:52:30;;;;;;;6.00;1.45;;;15.70;96.80;;;;;;10409223;28;20053;-61
2021/05/12 16:57:32;;;;;;;6.35;1.88;;;15.40;98.80;;;;;;10393343;28;20056;-61
2021/05/12 17:02:34;;;;;;;7.32;2.47;;;15.30;99.90;;;;;;10405120;28;20550;-61
2021/05/12 17:07:35;;;;;;;9.10;2.92;;;14.90;99.90;;;;;;10416940;28;20110;-61
2021/05/12 17:12:41;;;;;;;3.30;1.88;;;14.40;99.90;;;;;;10402009;28;20379;-61
2021/05/12 17:17:43;;;;;;;2.65;1.83;;;13.90;99.90;;;;;;10415859;28;20049;-61
2021/05/12 17:22:44;;;;;;;7.03;2.30;;;13.80;99.90;;;;;;10414679;28;20061;-61
2021/05/12 17:28:07;;;;;;;2.58;2.05;;;13.30;99.90;;;;;;10416034;28;20060;-60
2021/05/12 17:33:08;;;;;;;8.65;1.45;;;13.00;99.90;;;;;;10397768;28;20048;-60
2021/05/12 17:38:10;;;;;;;2.63;0.95;;;12.80;99.90;;;;;;10412696;28;20037;-61
2021/05/12 17:43:12;;;;;;;3.95;0.80;;;12.80;99.90;;;;;;10418033;28;20045;-61
2021/05/12 17:48:15;;;;;;;2.13;0.60;;;12.70;99.90;;;;;;10415410;28;20048;-60
2021/05/12 17:53:17;;;;;;;3.63;1.00;;;12.80;99.90;;;;;;10412660;28;20045;-60
2021/05/12 17:58:19;;;;;;;6.13;1.65;;;12.80;99.90;;;;;;10414013;28;20670;-59
2021/05/12 18:03:25;;;;;;;3.20;1.67;;;12.80;99.90;;;;;;10412678;28;20056;-60
2021/05/12 18:08:27;;;;;;;6.65;2.25;;;12.70;99.90;;;;;;10417822;28;20177;-60
2021/05/12 18:18:57;;;;;;;2.08;1.60;;;12.70;99.90;;;;;;10333776;28;20064;-61
2021/05/12 18:23:59;;;;;;;3.92;1.88;;;12.60;99.90;;;;;;10413858;28;20107;-61
2021/05/12 18:29:02;;;;;;;4.47;2.40;;;12.20;99.90;;;;;;10415205;28;20061;-60
2021/05/12 18:34:05;;;;;;;3.30;1.50;;;12.10;99.90;;;;;;10396931;28;20680;-61
2021/05/12 18:39:16;;;;;;;1.77;1.13;;;12.10;99.90;;;;;;10415242;28;20076;-61
2021/05/12 18:44:21;;;;;;;1.98;1.20;;;12.20;99.90;;;;;;10402139;28;20115;-60
2021/05/12 18:49:23;;;;;;;3.65;1.33;;;12.20;99.90;;;;;;10409879;28;20041;-60
2021/05/12 18:54:25;;;;;;;2.38;1.02;;;12.10;99.90;;;;;;10411584;28;20041;-60
2021/05/12 18:59:26;;;;;;;2.65;1.17;;;12.10;99.90;;;;;;10414341;28;20057;-61
2021/05/12 19:04:30;;;;;;;2.63;1.38;;;12.10;99.90;;;;;;10412481;28;20044;-60
2021/05/12 19:09:59;;;;;;;3.42;1.10;;;12.10;99.90;;;;;;10416995;28;20118;-61
2021/05/12 19:15:04;;;;;;;5.53;1.30;;;12.20;99.90;;;;;;10414123;28;20053;-61
2021/05/12 19:33:50;;;;;;;4.47;2.13;;;12.10;99.90;;;;;;10414821;28;20048;-60
2021/05/12 19:41:19;;;;;;;7.43;2.42;;;12.00;99.90;;;;;;10413137;28;20087;-62
2021/05/12 19:46:23;;;;;;;5.55;2.58;;;12.00;99.90;;;;;;10416145;28;20111;-61
2021/05/12 19:51:25;;;;;;;2.50;2.03;;;11.90;99.90;;;;;;10412623;28;20051;-61
2021/05/12 20:01:30;;;;;;;3.33;2.53;;;11.80;99.90;;;;;;10410891;28;20111;-61
2021/05/12 20:11:49;;;;;;;4.97;1.98;;;11.70;99.90;;;;;;10414087;28;20041;-61
2021/05/12 20:16:50;;;;;;;13.60;5.00;;;11.70;99.90;;;;;;10417843;28;20079;-60
2021/05/12 20:21:53;;;;;;;7.97;4.65;;;11.70;99.90;;;;;;10414331;28;20135;-61
2021/05/12 20:26:55;;;;;;;8.43;4.85;;;11.60;99.90;;;;;;10416521;28;20056;-61
2021/05/12 20:31:57;;;;;;;5.32;4.38;;;11.60;99.90;;;;;;10414648;28;20412;-59
2021/05/12 20:37:02;;;;;;;10.27;5.90;;;11.60;99.90;;;;;;10419465;28;20045;-60
2021/05/12 20:42:07;;;;;;;8.50;5.30;;;11.60;99.90;;;;;;10420069;28;20638;-60
2021/05/12 20:47:09;;;;;;;9.95;5.00;;;11.60;99.90;;;;;;10416923;28;20052;-60
2021/05/12 20:52:11;;;;;;;8.35;5.15;;;11.60;99.90;;;;;;10416790;28;20045;-60
2021/05/12 20:57:13;;;;;;;6.50;4.28;;;11.60;99.90;;;;;;10421346;28;20561;-60
2021/05/12 21:02:15;;;;;;;8.52;4.90;;;11.50;99.90;;;;;;10414452;28;20057;-61
2021/05/12 21:07:17;;;;;;;7.65;4.90;;;11.50;99.90;;;;;;10405572;28;20056;-60
2021/05/12 21:12:19;;;;;;;8.40;5.57;;;11.50;99.90;;;;;;10418110;28;20057;-61
2021/05/12 21:17:21;;;;;;;12.68;6.82;;;11.50;99.90;;;;;;10421694;28;20073;-61
2021/05/12 21:22:35;;;;;;;9.63;6.30;;;11.50;99.90;;;;;;10418010;28;20111;-60
2021/05/12 21:27:37;;;;;;;8.20;4.47;;;11.50;99.90;;;;;;10418361;28;20053;-60
2021/05/12 21:32:38;;;;;;;5.63;4.70;;;11.50;99.90;;;;;;10419339;28;20079;-60
2021/05/12 21:37:40;;;;;;;9.93;6.93;;;11.50;99.90;;;;;;10421795;28;20064;-60
2021/05/12 21:42:42;;;;;;;14.40;8.13;;;11.40;99.90;;;;;;10416269;28;20057;-60
2021/05/12 21:47:43;;;;;;;9.15;6.03;;;11.30;99.90;;;;;;10416158;28;20137;-60
2021/05/12 21:52:46;;;;;;;10.80;5.93;;;11.30;99.90;;;;;;10411018;28;20047;-61
2021/05/12 21:57:48;;;;;;;15.32;7.93;;;11.30;99.90;;;;;;10419712;28;20103;-60
2021/05/12 22:02:53;;;;;;;19.58;17.35;;;11.20;99.90;;;;;;10418960;28;20056;-61
2021/05/12 22:23:44;;;;;;;8.57;4.05;;;11.00;99.90;;;;;;10364719;28;20022;-60
2021/05/12 22:34:05;;;;;;;5.70;3.47;;;10.90;99.90;;;;;;10414446;28;20094;-61
2021/05/12 22:39:07;;;;;;;5.90;4.25;;;10.80;99.90;;;;;;10402969;28;20488;-60
2021/05/12 22:44:09;;;;;;;7.18;3.35;;;10.80;99.90;;;;;;10408345;28;20045;-59
2021/05/12 22:49:10;;;;;;;7.57;3.80;;;10.70;99.90;;;;;;10407101;28;20049;-59
2021/05/12 22:54:20;;;;;;;6.47;4.32;;;10.70;99.90;;;;;;10410098;28;20076;-59
2021/05/12 22:59:21;;;;;;;5.90;3.35;;;10.60;99.90;;;;;;10407425;28;20072;-60
2021/05/12 23:04:24;;;;;;;6.40;4.10;;;10.60;99.90;;;;;;10413089;28;20053;-59
2021/05/12 23:09:26;;;;;;;6.90;4.85;;;10.60;99.90;;;;;;10408918;28;20658;-60
2021/05/12 23:14:27;;;;;;;5.65;4.03;;;10.50;99.90;;;;;;10412451;28;20053;-60
2021/05/12 23:19:29;;;;;;;5.80;3.85;;;10.40;99.90;;;;;;10409662;28;20061;-60
2021/05/12 23:24:33;;;;;;;6.47;3.65;;;10.40;99.90;;;;;;10409245;28;20053;-60
2021/05/12 23:29:34;;;;;;;8.38;3.22;;;10.30;99.90;;;;;;10414040;28;20053;-62
2021/05/12 23:34:37;;;;;;;6.03;4.25;;;10.30;99.90;;;;;;10414529;28;20057;-60
2021/05/12 23:39:44;;;;;;;5.65;3.30;;;10.30;99.90;;;;;;10408668;28;20041;-59
2021/05/12 23:44:46;;;;;;;4.10;2.10;;;10.30;99.90;;;;;;10413000;28;20061;-59
2021/05/12 23:49:48;;;;;;;4.05;2.53;;;10.40;99.90;;;;;;10415145;28;20392;-59
2021/05/12 23:54:50;;;;;;;5.18;3.22;;;10.40;99.90;;;;;;10408702;28;20053;-59
2021/05/12 23:59:51;;;;;;;4.22;2.67;;;10.40;99.90;;;;;;10414586;28;20499;-58
